createdAt,value
2023-05-05T00:01:30.389Z,71.56
2023-05-05T00:03:57.032Z,72.37
2023-05-05T00:06:25.063Z,73.32
2023-05-05T00:08:51.674Z,72.18
2023-05-05T00:11:18.366Z,71.43
2023-05-05T00:13:44.950Z,70.37
2023-05-05T00:16:11.568Z,70.29
2023-05-05T00:18:38.249Z,69.37
2023-05-05T00:21:04.891Z,68.85
2023-05-05T00:23:33.006Z,68.66
2023-05-05T00:25:59.692Z,69.50
2023-05-05T00:28:26.357Z,69.77
2023-05-05T00:30:53.122Z,70.22
2023-05-05T00:33:19.822Z,70.21
2023-05-05T00:35:46.599Z,71.13
2023-05-05T00:38:13.186Z,70.31
2023-05-05T00:40:41.324Z,69.89
2023-05-05T00:43:08.278Z,69.86
2023-05-05T00:45:37.052Z,69.67
2023-05-05T00:48:03.952Z,69.08
2023-05-05T00:50:31.179Z,69.00
2023-05-05T00:53:01.193Z,69.38
2023-05-05T00:55:28.564Z,69.49
2023-05-05T00:57:57.511Z,69.62
2023-05-05T01:00:24.463Z,69.12
2023-05-05T01:02:52.280Z,68.81
2023-05-05T01:05:19.418Z,69.41
2023-05-05T01:07:52.309Z,69.33
2023-05-05T01:10:22.990Z,69.61
2023-05-05T01:12:53.825Z,69.93
2023-05-05T01:15:28.353Z,70.95
2023-05-05T01:17:59.610Z,70.64
2023-05-05T01:20:29.264Z,71.04
2023-05-05T01:22:58.405Z,70.70
2023-05-05T01:25:37.165Z,70.73
2023-05-05T01:28:11.340Z,71.31
2023-05-05T01:30:53.045Z,71.74
2023-05-05T01:33:36.291Z,71.66
2023-05-05T01:36:09.142Z,72.07
2023-05-05T01:38:38.069Z,71.73
2023-05-05T01:41:07.581Z,71.51
2023-05-05T01:43:35.187Z,71.21
2023-05-05T01:46:02.433Z,71.76
2023-05-05T01:48:33.519Z,71.07
2023-05-05T01:51:00.788Z,71.09
2023-05-05T01:53:29.614Z,71.18
2023-05-05T01:55:57.313Z,71.72
2023-05-05T01:58:25.399Z,71.22
2023-05-05T02:00:52.665Z,71.39
2023-05-05T02:03:21.122Z,71.48
2023-05-05T02:05:49.642Z,71.36
2023-05-05T02:08:16.851Z,71.04
2023-05-05T02:10:45.040Z,71.50
2023-05-05T02:13:13.315Z,71.33
2023-05-05T02:15:40.608Z,72.20
2023-05-05T02:18:07.741Z,71.89
2023-05-05T02:20:36.117Z,71.46
2023-05-05T02:23:05.664Z,71.04
2023-05-05T02:25:35.505Z,71.12
2023-05-05T02:28:03.881Z,70.42
2023-05-05T02:30:33.535Z,70.51
2023-05-05T02:33:06.225Z,71.45
2023-05-05T02:35:35.832Z,71.33
2023-05-05T02:38:05.622Z,71.53
2023-05-05T02:40:38.555Z,73.09
2023-05-05T02:43:08.187Z,74.38
2023-05-05T02:45:34.886Z,73.46
2023-05-05T02:48:02.849Z,74.31
2023-05-05T02:50:31.254Z,74.93
2023-05-05T02:53:09.464Z,75.06
2023-05-05T02:55:39.298Z,75.60
2023-05-05T02:58:08.560Z,76.56
2023-05-05T03:00:43.851Z,76.86
2023-05-05T03:03:17.776Z,77.85
2023-05-05T03:05:51.536Z,77.33
2023-05-05T03:08:25.851Z,77.91
2023-05-05T03:10:58.984Z,77.95
2023-05-05T03:13:28.536Z,77.63
2023-05-05T03:15:57.929Z,77.58
2023-05-05T03:18:27.746Z,75.75
2023-05-05T03:20:59.231Z,76.80
2023-05-05T03:23:26.390Z,76.37
2023-05-05T03:25:57.562Z,75.56
2023-05-05T03:28:38.747Z,74.84
2023-05-05T03:31:18.427Z,74.78
2023-05-05T03:33:49.790Z,74.79
2023-05-05T03:36:18.525Z,74.64
2023-05-05T03:38:45.823Z,74.76
2023-05-05T03:41:12.616Z,74.65
2023-05-05T03:43:41.389Z,75.44
2023-05-05T03:46:10.308Z,75.61
2023-05-05T03:48:37.351Z,75.33
2023-05-05T03:51:04.000Z,75.42
2023-05-05T03:53:33.466Z,75.25
2023-05-05T03:56:02.353Z,75.82
2023-05-05T03:58:28.981Z,75.77
2023-05-05T04:00:57.785Z,75.73
2023-05-05T04:03:25.380Z,76.11
2023-05-05T04:05:52.702Z,76.39
2023-05-05T04:08:20.224Z,75.86
2023-05-05T04:10:46.848Z,76.02
2023-05-05T04:13:13.592Z,76.23
2023-05-05T04:15:44.079Z,74.85
2023-05-05T04:18:12.319Z,75.02
2023-05-05T04:20:38.979Z,74.46
2023-05-05T04:23:05.829Z,74.24
2023-05-05T04:25:32.750Z,74.05
2023-05-05T04:27:59.406Z,73.94
2023-05-05T04:30:26.857Z,73.61
2023-05-05T04:32:53.710Z,72.75
2023-05-05T04:35:22.199Z,72.54
2023-05-05T04:37:49.049Z,72.68
2023-05-05T04:40:16.199Z,72.58
2023-05-05T04:42:42.963Z,72.04
2023-05-05T04:45:10.877Z,71.03
2023-05-05T04:47:38.262Z,69.26
2023-05-05T04:50:06.186Z,68.89
2023-05-05T04:52:34.436Z,66.80
2023-05-05T04:55:01.445Z,66.99
2023-05-05T04:57:28.079Z,66.35
2023-05-05T04:59:54.735Z,64.97
2023-05-05T05:02:22.311Z,68.83
2023-05-05T05:04:49.792Z,69.64
2023-05-05T05:07:16.866Z,73.25
2023-05-05T05:09:44.975Z,76.03
2023-05-05T05:12:11.909Z,76.66
2023-05-05T05:14:38.596Z,75.36
2023-05-05T05:17:05.636Z,71.81
2023-05-05T05:19:33.346Z,68.14
2023-05-05T05:22:00.199Z,67.23
2023-05-05T05:24:27.092Z,68.25
2023-05-05T05:26:55.452Z,68.38
2023-05-05T05:29:22.204Z,63.25
2023-05-05T05:31:50.191Z,60.40
2023-05-05T05:34:17.214Z,58.80
2023-05-05T05:36:44.657Z,55.30
2023-05-05T05:39:11.397Z,52.76
2023-05-05T05:41:38.629Z,51.25
2023-05-05T05:44:06.784Z,50.99
2023-05-05T05:46:33.732Z,48.00
2023-05-05T05:49:00.567Z,46.48
2023-05-05T05:51:27.897Z,47.43
2023-05-05T05:53:55.442Z,47.77
2023-05-05T05:56:23.660Z,45.94
2023-05-05T05:58:51.515Z,49.24
2023-05-05T06:01:20.115Z,52.34
2023-05-05T06:03:47.451Z,51.98
2023-05-05T06:06:14.276Z,46.60
2023-05-05T06:08:41.028Z,49.16
2023-05-05T06:11:07.953Z,48.54
2023-05-05T06:13:34.647Z,44.73
2023-05-05T06:16:02.108Z,44.60
2023-05-05T06:18:30.180Z,44.03
2023-05-05T06:20:57.235Z,46.31
2023-05-05T06:23:27.044Z,46.79
2023-05-05T06:25:58.871Z,47.25
2023-05-05T06:28:25.517Z,45.99
2023-05-05T06:30:52.146Z,47.50
2023-05-05T06:33:18.785Z,42.69
2023-05-05T06:35:47.819Z,40.50
2023-05-05T06:38:14.761Z,39.40
2023-05-05T06:40:42.144Z,38.90
2023-05-05T06:43:08.923Z,41.78
2023-05-05T06:45:43.680Z,41.30
2023-05-05T06:48:10.590Z,43.76
2023-05-05T06:50:37.270Z,44.73
2023-05-05T06:53:05.565Z,44.12
2023-05-05T06:55:32.208Z,48.13
2023-05-05T06:57:58.946Z,49.08
2023-05-05T07:00:25.714Z,49.93
2023-05-05T07:02:52.551Z,49.27
2023-05-05T07:05:19.356Z,50.10
2023-05-05T07:07:52.676Z,52.69
2023-05-05T07:10:21.490Z,50.21
2023-05-05T07:12:48.526Z,47.50
2023-05-05T07:15:25.995Z,46.58
2023-05-05T07:17:53.901Z,48.46
2023-05-05T07:20:20.519Z,46.07
2023-05-05T07:22:47.108Z,46.80
2023-05-05T07:25:13.729Z,49.24
2023-05-05T07:27:41.885Z,46.22
2023-05-05T07:30:13.007Z,47.08
2023-05-05T07:32:41.046Z,46.57
2023-05-05T07:35:07.986Z,46.35
2023-05-05T07:37:34.685Z,44.73
2023-05-05T07:40:01.358Z,43.03
2023-05-05T07:42:28.017Z,45.10
2023-05-05T07:44:56.051Z,42.02
2023-05-05T07:47:22.763Z,43.94
2023-05-05T07:49:49.412Z,47.73
2023-05-05T07:52:16.061Z,46.00
2023-05-05T07:54:42.762Z,44.95
2023-05-05T07:57:09.417Z,43.20
2023-05-05T07:59:36.137Z,43.65
2023-05-05T08:02:04.145Z,42.42
2023-05-05T08:04:30.857Z,41.57
2023-05-05T08:06:57.615Z,43.59
2023-05-05T08:09:24.511Z,42.07
2023-05-05T08:11:51.150Z,46.96
2023-05-05T08:14:17.746Z,47.23
2023-05-05T08:16:44.398Z,47.27
2023-05-05T08:19:24.943Z,48.95
2023-05-05T08:21:55.117Z,47.69
2023-05-05T08:24:21.763Z,44.33
2023-05-05T08:26:49.195Z,46.60
2023-05-05T08:29:15.831Z,48.32
2023-05-05T08:31:42.610Z,47.20
2023-05-05T08:34:09.362Z,47.07
2023-05-05T08:36:37.370Z,44.33
2023-05-05T08:39:04.131Z,46.63
2023-05-05T08:41:31.101Z,45.54
2023-05-05T08:43:57.784Z,42.32
2023-05-05T08:46:26.825Z,42.74
2023-05-05T08:48:55.084Z,46.15
2023-05-05T08:51:22.065Z,47.90
2023-05-05T08:53:56.425Z,42.76
2023-05-05T08:56:25.869Z,43.51
2023-05-05T08:58:52.634Z,45.46
2023-05-05T09:01:19.937Z,42.75
2023-05-05T09:03:46.835Z,40.57
2023-05-05T09:06:13.555Z,40.95
2023-05-05T09:08:40.410Z,43.11
2023-05-05T09:11:08.452Z,43.06
2023-05-05T09:13:35.100Z,40.44
2023-05-05T09:16:01.755Z,41.79
2023-05-05T09:18:28.932Z,45.75
2023-05-05T09:20:56.859Z,41.18
2023-05-05T09:23:25.507Z,41.99
2023-05-05T09:26:03.826Z,42.49
2023-05-05T09:28:32.279Z,41.19
2023-05-05T09:31:11.983Z,43.82
2023-05-05T09:33:39.352Z,42.72
2023-05-05T09:36:06.328Z,42.59
2023-05-05T09:38:34.382Z,44.40
2023-05-05T09:41:01.033Z,42.21
2023-05-05T09:43:27.700Z,43.91
2023-05-05T09:46:05.715Z,42.96
2023-05-05T09:48:32.517Z,41.31
2023-05-05T09:50:59.660Z,40.63
2023-05-05T09:53:26.664Z,43.20
2023-05-05T09:55:54.464Z,45.16
2023-05-05T09:58:24.337Z,40.83
2023-05-05T10:00:51.467Z,38.40
2023-05-05T10:03:19.814Z,37.65
2023-05-05T10:05:50.677Z,38.47
2023-05-05T10:08:18.262Z,40.88
2023-05-05T10:10:51.432Z,40.30
2023-05-05T10:13:19.035Z,40.14
2023-05-05T10:15:47.130Z,40.57
2023-05-05T10:18:14.813Z,42.96
2023-05-05T10:20:43.922Z,41.10
2023-05-05T10:23:12.769Z,42.76
2023-05-05T10:25:42.203Z,39.29
2023-05-05T10:28:11.805Z,38.73
2023-05-05T10:30:43.201Z,42.08
2023-05-05T10:33:30.027Z,39.74
2023-05-05T10:36:01.478Z,40.13
2023-05-05T10:38:28.816Z,39.75
2023-05-05T10:40:56.458Z,40.98
2023-05-05T10:43:23.385Z,37.37
2023-05-05T10:45:50.264Z,37.98
2023-05-05T10:48:22.791Z,38.78
2023-05-05T10:50:51.544Z,38.38
2023-05-05T10:53:22.279Z,41.73
2023-05-05T10:55:54.215Z,42.34
2023-05-05T10:58:38.510Z,43.19
2023-05-05T11:01:10.818Z,41.57
2023-05-05T11:03:37.611Z,42.75
2023-05-05T11:06:12.650Z,39.09
2023-05-05T11:08:42.081Z,40.04
2023-05-05T11:11:10.534Z,39.32
2023-05-05T11:13:37.969Z,37.92
2023-05-05T11:16:05.443Z,38.21
2023-05-05T11:18:36.486Z,39.19
2023-05-05T11:21:15.721Z,40.34
2023-05-05T11:23:44.598Z,40.25
2023-05-05T11:26:11.731Z,41.71
2023-05-05T11:28:53.253Z,39.69
2023-05-05T11:31:20.102Z,40.63
2023-05-05T11:33:46.965Z,38.57
2023-05-05T11:36:14.545Z,40.63
2023-05-05T11:38:52.893Z,39.71
2023-05-05T11:41:28.035Z,40.42
2023-05-05T11:44:08.208Z,37.31
2023-05-05T11:46:34.935Z,39.62
2023-05-05T11:49:01.570Z,39.67
2023-05-05T11:51:28.607Z,39.99
2023-05-05T11:53:58.383Z,40.57
2023-05-05T11:56:25.950Z,39.53
2023-05-05T11:59:06.038Z,38.20
2023-05-05T12:01:32.948Z,38.57
2023-05-05T12:03:59.807Z,40.20
2023-05-05T12:06:27.573Z,39.27
2023-05-05T12:08:54.230Z,39.57
2023-05-05T12:11:22.225Z,42.86
2023-05-05T12:13:48.875Z,45.46
2023-05-05T12:16:15.958Z,45.67
2023-05-05T12:18:42.740Z,47.00
2023-05-05T12:21:16.027Z,47.69
2023-05-05T12:23:42.840Z,48.32
2023-05-05T12:26:24.871Z,50.25
2023-05-05T12:28:51.652Z,53.70
2023-05-05T12:31:18.286Z,54.94
2023-05-05T12:33:45.345Z,57.62
2023-05-05T12:36:12.298Z,58.71
2023-05-05T12:38:39.496Z,60.02
2023-05-05T12:41:06.172Z,60.92
2023-05-05T12:43:35.133Z,62.08
2023-05-05T12:46:02.613Z,62.90
2023-05-05T12:48:29.289Z,65.56
2023-05-05T12:51:09.490Z,67.71
2023-05-05T12:53:36.061Z,68.17
2023-05-05T12:56:03.130Z,70.38
2023-05-05T12:58:32.663Z,70.84
2023-05-05T13:01:10.226Z,72.36
2023-05-05T13:03:36.943Z,71.93
2023-05-05T13:06:18.380Z,73.09
2023-05-05T13:08:45.109Z,73.13
2023-05-05T13:11:12.234Z,74.17
2023-05-05T13:13:38.886Z,75.07
2023-05-05T13:16:05.966Z,74.82
2023-05-05T13:18:42.909Z,76.20
2023-05-05T13:21:09.540Z,76.29
2023-05-05T13:23:36.187Z,76.21
2023-05-05T13:26:03.445Z,78.03
2023-05-05T13:28:30.134Z,77.41
2023-05-05T13:30:58.675Z,77.64
2023-05-05T13:33:25.392Z,76.99
2023-05-05T13:35:53.352Z,75.70
2023-05-05T13:38:20.068Z,75.71
2023-05-05T13:40:46.758Z,75.99
2023-05-05T13:43:13.563Z,78.35
2023-05-05T13:45:41.762Z,76.82
2023-05-05T13:48:08.787Z,77.36
2023-05-05T13:50:35.486Z,75.17
2023-05-05T13:53:03.521Z,75.62
2023-05-05T13:55:30.220Z,75.87
2023-05-05T13:57:58.720Z,74.97
2023-05-05T14:00:25.409Z,76.39
2023-05-05T14:02:52.241Z,76.82
2023-05-05T14:05:19.118Z,77.14
2023-05-05T14:07:45.760Z,76.19
2023-05-05T14:10:13.848Z,76.37
2023-05-05T14:12:40.505Z,76.37
2023-05-05T14:15:07.922Z,77.75
2023-05-05T14:17:34.859Z,78.13
2023-05-05T14:20:01.496Z,79.54
2023-05-05T14:22:28.292Z,78.49
2023-05-05T14:24:55.043Z,78.58
2023-05-05T14:27:23.313Z,79.99
2023-05-05T14:29:49.967Z,78.17
2023-05-05T14:32:16.838Z,78.00
2023-05-05T14:34:43.506Z,77.92
2023-05-05T14:37:10.188Z,79.40
2023-05-05T14:39:37.299Z,79.46
2023-05-05T14:42:04.323Z,77.85
2023-05-05T14:44:32.707Z,78.41
2023-05-05T14:46:59.632Z,79.47
2023-05-05T14:49:26.255Z,79.70
2023-05-05T14:51:54.409Z,79.40
2023-05-05T14:54:27.784Z,81.07
2023-05-05T14:56:55.634Z,76.62
2023-05-05T14:59:22.323Z,76.99
2023-05-05T15:01:50.441Z,75.51
2023-05-05T15:04:17.180Z,74.94
2023-05-05T15:06:43.831Z,75.74
2023-05-05T15:09:10.424Z,74.30
2023-05-05T15:11:37.081Z,74.88
2023-05-05T15:14:03.671Z,74.68
2023-05-05T15:16:30.408Z,73.14
2023-05-05T15:18:58.841Z,73.06
2023-05-05T15:21:25.601Z,72.54
2023-05-05T15:23:52.284Z,73.07
2023-05-05T15:26:19.160Z,76.42
2023-05-05T15:28:46.555Z,74.27
2023-05-05T15:31:14.419Z,74.24
2023-05-05T15:33:41.301Z,75.29
2023-05-05T15:36:10.126Z,76.01
2023-05-05T15:38:40.483Z,75.45
2023-05-05T15:41:07.127Z,76.11
2023-05-05T15:43:34.038Z,79.96
2023-05-05T15:46:00.750Z,79.16
2023-05-05T15:48:27.489Z,79.05
2023-05-05T15:50:54.084Z,78.91
2023-05-05T15:53:22.141Z,77.76
2023-05-05T15:55:48.770Z,80.15
2023-05-05T15:58:15.543Z,80.45
2023-05-05T16:00:42.142Z,81.67
2023-05-05T16:03:08.876Z,80.22
2023-05-05T16:05:35.569Z,80.98
2023-05-05T16:08:02.149Z,80.95
2023-05-05T16:10:30.496Z,83.61
2023-05-05T16:12:57.531Z,80.84
2023-05-05T16:15:24.329Z,85.16
2023-05-05T16:17:51.008Z,81.41
2023-05-05T16:20:17.680Z,80.78
2023-05-05T16:22:44.414Z,81.44
2023-05-05T16:25:11.321Z,80.47
2023-05-05T16:27:39.387Z,78.44
2023-05-05T16:30:07.189Z,79.45
2023-05-05T16:32:33.827Z,79.03
2023-05-05T16:35:01.886Z,80.69
2023-05-05T16:37:28.588Z,82.29
2023-05-05T16:39:55.423Z,81.25
2023-05-05T16:42:22.657Z,79.67
2023-05-05T16:44:50.703Z,80.68
2023-05-05T16:47:17.367Z,80.55
2023-05-05T16:49:43.983Z,81.95
2023-05-05T16:52:10.591Z,82.02
2023-05-05T16:54:37.228Z,80.50
2023-05-05T16:57:03.923Z,81.72
2023-05-05T16:59:31.653Z,82.21
2023-05-05T17:01:59.898Z,83.03
2023-05-05T17:04:26.576Z,82.42
2023-05-05T17:06:54.974Z,83.30
2023-05-05T17:09:24.958Z,83.53
2023-05-05T17:11:51.869Z,81.46
2023-05-05T17:14:18.588Z,81.66
2023-05-05T17:16:45.263Z,82.31
2023-05-05T17:19:13.399Z,82.36
2023-05-05T17:21:40.029Z,83.58
2023-05-05T17:24:07.171Z,84.13
2023-05-05T17:26:33.790Z,82.74
2023-05-05T17:29:00.432Z,83.71
2023-05-05T17:31:27.064Z,84.51
2023-05-05T17:33:53.716Z,84.98
2023-05-05T17:36:21.681Z,85.15
2023-05-05T17:38:48.345Z,85.93
2023-05-05T17:41:14.939Z,86.43
2023-05-05T17:43:41.519Z,86.64
2023-05-05T17:46:08.198Z,85.84
2023-05-05T17:48:34.821Z,85.25
2023-05-05T17:51:01.426Z,84.88
2023-05-05T17:53:29.413Z,87.10
2023-05-05T17:55:56.008Z,88.27
2023-05-05T17:58:22.763Z,88.47
2023-05-05T18:00:49.459Z,89.24
2023-05-05T18:03:16.473Z,87.52
2023-05-05T18:05:43.156Z,89.04
2023-05-05T18:08:09.807Z,89.47
2023-05-05T18:10:37.822Z,88.46
2023-05-05T18:13:04.474Z,89.50
2023-05-05T18:15:31.222Z,88.86
2023-05-05T18:17:57.956Z,87.94
2023-05-05T18:20:24.762Z,88.48
2023-05-05T18:22:52.263Z,87.59
2023-05-05T18:25:19.242Z,87.32
2023-05-05T18:27:47.263Z,89.37
2023-05-05T18:30:13.990Z,88.31
2023-05-05T18:32:40.869Z,87.97
2023-05-05T18:35:08.257Z,86.02
2023-05-05T18:37:35.132Z,84.64
2023-05-05T18:40:01.736Z,85.73
2023-05-05T18:42:28.488Z,88.12
2023-05-05T18:44:56.506Z,86.79
2023-05-05T18:47:23.657Z,87.55
2023-05-05T18:49:50.536Z,87.33
2023-05-05T18:52:17.292Z,85.63
2023-05-05T18:54:43.905Z,87.24
2023-05-05T18:57:10.703Z,87.56
2023-05-05T18:59:37.460Z,88.79
2023-05-05T19:02:06.547Z,88.67
2023-05-05T19:04:36.457Z,88.78
2023-05-05T19:07:03.206Z,87.95
2023-05-05T19:09:29.824Z,87.68
2023-05-05T19:11:56.504Z,87.79
2023-05-05T19:14:23.242Z,86.40
2023-05-05T19:16:50.054Z,86.09
2023-05-05T19:19:18.277Z,89.06
2023-05-05T19:21:44.963Z,90.71
2023-05-05T19:24:11.719Z,90.30
2023-05-05T19:26:38.372Z,90.24
2023-05-05T19:29:04.956Z,91.04
2023-05-05T19:31:31.802Z,91.94
2023-05-05T19:34:00.104Z,92.27
2023-05-05T19:36:28.303Z,92.41
2023-05-05T19:38:55.308Z,92.46
2023-05-05T19:41:21.940Z,91.29
2023-05-05T19:43:49.905Z,90.37
2023-05-05T19:46:17.273Z,88.81
2023-05-05T19:48:44.388Z,88.97
2023-05-05T19:51:11.023Z,88.81
2023-05-05T19:53:40.197Z,88.64
2023-05-05T19:56:06.866Z,88.21
2023-05-05T19:58:34.387Z,87.10
2023-05-05T20:01:01.096Z,87.10
2023-05-05T20:03:27.838Z,88.01
2023-05-05T20:05:54.474Z,88.38
2023-05-05T20:08:21.114Z,86.36
2023-05-05T20:10:50.684Z,85.38
2023-05-05T20:13:17.352Z,84.98
2023-05-05T20:15:44.100Z,84.24
2023-05-05T20:18:10.856Z,84.28
2023-05-05T20:20:37.514Z,84.10
2023-05-05T20:23:04.103Z,83.90
2023-05-05T20:25:30.825Z,84.24
2023-05-05T20:27:58.849Z,84.91
2023-05-05T20:30:25.580Z,84.71
2023-05-05T20:32:53.662Z,87.24
2023-05-05T20:35:21.306Z,89.10
2023-05-05T20:37:48.695Z,90.11
2023-05-05T20:40:15.884Z,91.09
2023-05-05T20:42:42.524Z,91.65
2023-05-05T20:45:11.328Z,91.56
2023-05-05T20:47:38.220Z,90.96
2023-05-05T20:50:05.757Z,89.90
2023-05-05T20:52:33.651Z,88.15
2023-05-05T20:55:00.234Z,87.29
2023-05-05T20:57:26.857Z,86.62
2023-05-05T20:59:53.439Z,86.35
2023-05-05T21:02:21.500Z,88.80
2023-05-05T21:04:48.209Z,92.24
2023-05-05T21:07:14.845Z,93.14
2023-05-05T21:09:41.532Z,92.30
2023-05-05T21:12:08.143Z,89.75
2023-05-05T21:14:34.992Z,88.74
2023-05-05T21:17:01.666Z,88.34
2023-05-05T21:19:29.732Z,87.94
2023-05-05T21:21:59.303Z,87.61
2023-05-05T21:24:26.088Z,89.51
2023-05-05T21:26:52.807Z,91.95
2023-05-05T21:29:19.630Z,93.12
2023-05-05T21:31:46.613Z,91.87
2023-05-05T21:34:13.317Z,90.95
2023-05-05T21:36:41.266Z,92.36
2023-05-05T21:39:07.836Z,92.20
2023-05-05T21:41:34.456Z,91.81
2023-05-05T21:44:01.153Z,90.51
2023-05-05T21:46:27.916Z,90.67
2023-05-05T21:48:54.640Z,91.61
2023-05-05T21:51:23.237Z,91.16
2023-05-05T21:53:51.408Z,90.10
2023-05-05T21:56:18.029Z,90.20
2023-05-05T21:58:44.770Z,89.25
2023-05-05T22:01:11.967Z,89.71
2023-05-05T22:03:38.853Z,88.76
2023-05-05T22:06:05.730Z,86.78
2023-05-05T22:08:32.388Z,85.18
2023-05-05T22:11:00.488Z,85.76
2023-05-05T22:13:27.173Z,86.86
2023-05-05T22:15:53.768Z,87.77
2023-05-05T22:18:20.400Z,87.84
2023-05-05T22:20:47.185Z,86.19
2023-05-05T22:23:14.245Z,86.25
2023-05-05T22:25:40.846Z,85.68
2023-05-05T22:28:08.837Z,86.16
2023-05-05T22:30:35.624Z,87.16
2023-05-05T22:33:02.309Z,87.53
2023-05-05T22:35:29.030Z,87.59
2023-05-05T22:37:55.757Z,87.75
2023-05-05T22:40:22.301Z,86.39
2023-05-05T22:42:48.941Z,85.72
2023-05-05T22:45:17.029Z,84.81
2023-05-05T22:47:44.478Z,87.55
2023-05-05T22:50:11.324Z,88.77
2023-05-05T22:52:38.014Z,89.22
2023-05-05T22:55:04.985Z,87.53
2023-05-05T22:57:31.748Z,86.46
2023-05-05T22:59:58.395Z,84.64
2023-05-05T23:02:26.770Z,84.28
2023-05-05T23:04:53.536Z,84.35
2023-05-05T23:07:20.312Z,89.11
2023-05-05T23:09:46.977Z,92.73
2023-05-05T23:12:13.584Z,93.88
2023-05-05T23:14:40.480Z,90.29
2023-05-05T23:17:07.233Z,91.91
2023-05-05T23:19:35.268Z,91.32
2023-05-05T23:22:02.246Z,89.58
2023-05-05T23:24:29.233Z,87.75
2023-05-05T23:26:58.296Z,86.32
2023-05-05T23:29:25.039Z,85.43
2023-05-05T23:31:51.754Z,84.94
2023-05-05T23:34:18.370Z,89.18
2023-05-05T23:36:46.766Z,92.82
2023-05-05T23:39:13.364Z,93.27
2023-05-05T23:41:40.147Z,90.00
2023-05-05T23:44:06.741Z,87.78
2023-05-05T23:46:33.440Z,86.83
2023-05-05T23:49:00.030Z,91.89
2023-05-05T23:51:27.304Z,94.25
2023-05-05T23:53:56.076Z,93.57
2023-05-05T23:56:22.829Z,92.81
2023-05-05T23:58:49.489Z,90.14
